Accueil
METAR-TAF:

METAR-TAF

Aéroports :

Aérodrome de Sanikiluaq

Sanikiluaq, Nunavut, Canada

latitude: 56-32N, longitude: 079-15W, altitude: 32 m

Observation

Le bulletin a été fait il y a 56 minutes, à 15:00 UTC
Vent 14 kt de est/nord-est
Température 1°C
Humidité 75%
Pression 1019 hPa
Visibilité: 24.1 km
Ciel clair

METAR: CYSK 021500Z 07014KT 15SM SKC 01/M03 A3009 RMK SLP195

Heure: 11:56 (15:56 UTC)


TAF: absent

Observations et prévisions météorologiques de plus de 4000 aéroports (messages METAR et TAF).

Les stations disponibles sont représentées par des disques jaunes et rouges sur la carte.

Passer la souris dessus pour voir le nom de la station.

Cliquer dessus pour voir les observations et prévisions météorologiques.

Pour changer de carte: cliquez sur les boutons verts avec une croix noire pour zoomer, sur le bouton vert avec un tiret pour effectuer un zoom arrière, ou sur les flèches vertes pour les cartes adjacentes.


METAR-TAF: